createdAt,value
2023-01-09T00:03:07.152Z,99058.78
2023-01-09T00:08:09.558Z,99061.59
2023-01-09T00:13:12.046Z,99046.44
2023-01-09T00:18:13.386Z,99032.88
2023-01-09T00:23:14.688Z,99025.88
2023-01-09T00:28:16.031Z,99027.38
2023-01-09T00:33:17.392Z,99022.00
2023-01-09T00:38:18.794Z,99019.84
2023-01-09T00:43:20.594Z,99017.06
2023-01-09T00:48:26.897Z,99026.28
2023-01-09T00:53:31.289Z,99028.13
2023-01-09T00:58:33.427Z,99026.34
2023-01-09T01:03:34.739Z,99036.75
2023-01-09T01:08:36.051Z,99033.75
2023-01-09T01:13:38.436Z,99040.94
2023-01-09T01:18:40.606Z,99041.16
2023-01-09T01:23:42.054Z,99047.16
2023-01-09T01:28:43.409Z,99063.53
2023-01-09T01:33:44.783Z,99070.09
2023-01-09T01:38:46.916Z,99062.50
2023-01-09T01:44:14.713Z,99055.53
2023-01-09T01:49:20.207Z,99058.75
2023-01-09T01:54:24.931Z,99056.75
2023-01-09T01:59:28.507Z,99059.13
2023-01-09T02:04:32.091Z,99080.53
2023-01-09T02:09:33.912Z,99075.97
2023-01-09T02:14:35.305Z,99084.97
2023-01-09T02:19:57.845Z,99077.97
2023-01-09T02:25:01.964Z,99073.56
2023-01-09T02:30:21.547Z,99077.97
2023-01-09T02:35:29.001Z,99094.34
2023-01-09T02:40:33.422Z,99098.16
2023-01-09T02:45:34.784Z,99096.78
2023-01-09T02:50:42.276Z,99099.34
2023-01-09T02:55:58.585Z,99099.34
2023-01-09T03:01:11.949Z,99104.06
2023-01-09T03:06:42.142Z,99118.19
2023-01-09T03:11:47.183Z,99143.66
2023-01-09T03:16:52.905Z,99149.06
2023-01-09T03:21:55.015Z,99148.25
2023-01-09T03:26:56.333Z,99157.59
2023-01-09T03:31:57.826Z,99158.22
2023-01-09T03:36:59.247Z,99171.97
2023-01-09T03:42:00.573Z,99179.50
2023-01-09T03:47:02.063Z,99173.94
2023-01-09T03:52:03.789Z,99185.22
2023-01-09T03:57:05.332Z,99189.75
2023-01-09T04:02:07.238Z,99190.13
2023-01-09T04:07:08.623Z,99190.25
2023-01-09T04:12:09.947Z,99197.50
2023-01-09T04:17:11.402Z,99198.25
2023-01-09T04:22:12.710Z,99202.31
2023-01-09T04:27:14.339Z,99199.69
2023-01-09T04:32:16.001Z,99211.34
2023-01-09T04:37:17.326Z,99217.28
2023-01-09T04:42:18.945Z,99224.09
2023-01-09T04:47:20.713Z,99215.19
2023-01-09T04:52:22.017Z,99230.81
2023-01-09T04:57:23.432Z,99241.03
2023-01-09T05:02:24.731Z,99247.41
2023-01-09T05:07:26.068Z,99255.78
2023-01-09T05:12:27.436Z,99260.97
2023-01-09T05:17:29.062Z,99283.22
2023-01-09T05:22:30.411Z,99275.22
2023-01-09T05:27:31.779Z,99280.47
2023-01-09T05:32:33.107Z,99272.44
2023-01-09T05:37:34.433Z,99262.94
2023-01-09T05:42:35.760Z,99266.28
2023-01-09T05:47:37.135Z,99273.22
2023-01-09T05:52:38.504Z,99264.63
2023-01-09T05:57:39.923Z,99280.09
2023-01-09T06:02:41.360Z,99285.81
2023-01-09T06:07:42.800Z,99296.13
2023-01-09T06:12:47.043Z,99286.47
2023-01-09T06:17:48.436Z,99292.84
2023-01-09T06:22:52.035Z,99307.44
2023-01-09T06:27:53.449Z,99306.09
2023-01-09T06:32:54.799Z,99299.78
2023-01-09T06:37:56.988Z,99309.34
2023-01-09T06:42:58.304Z,99317.16
2023-01-09T06:47:59.649Z,99312.19
2023-01-09T06:53:01.053Z,99323.78
2023-01-09T06:58:02.368Z,99330.94
2023-01-09T07:03:04.052Z,99335.72
2023-01-09T07:08:05.374Z,99339.88
2023-01-09T07:13:06.811Z,99351.47
2023-01-09T07:18:08.162Z,99354.44
2023-01-09T07:23:13.030Z,99349.22
2023-01-09T07:28:14.366Z,99358.19
2023-01-09T07:33:15.823Z,99354.97
2023-01-09T07:38:17.157Z,99358.97
2023-01-09T07:43:18.550Z,99349.22
2023-01-09T07:48:19.860Z,99354.00
2023-01-09T07:53:21.253Z,99351.22
2023-01-09T07:58:22.651Z,99348.63
2023-01-09T08:03:24.043Z,99341.44
2023-01-09T08:08:25.519Z,99360.00
2023-01-09T08:13:26.842Z,99370.31
2023-01-09T08:18:28.164Z,99379.72
2023-01-09T08:23:29.524Z,99375.59
2023-01-09T08:28:30.841Z,99377.28
2023-01-09T08:33:32.687Z,99368.88
2023-01-09T08:38:34.019Z,99374.03
2023-01-09T08:44:10.584Z,99377.53
2023-01-09T08:49:11.915Z,99389.44
2023-01-09T08:54:13.254Z,99399.19
2023-01-09T08:59:15.593Z,99392.97
2023-01-09T09:04:16.979Z,99392.63
2023-01-09T09:09:19.415Z,99390.66
2023-01-09T09:14:39.700Z,99403.88
2023-01-09T09:19:42.655Z,99393.06
2023-01-09T09:24:43.952Z,99402.13
2023-01-09T09:29:45.317Z,99403.22
2023-01-09T09:34:46.632Z,99399.38
2023-01-09T09:39:47.984Z,99403.56
2023-01-09T09:45:02.878Z,99411.34
2023-01-09T09:50:26.284Z,99413.69
2023-01-09T09:55:30.859Z,99416.97
2023-01-09T10:00:32.387Z,99421.41
2023-01-09T10:05:45.512Z,99419.81
2023-01-09T10:10:52.245Z,99425.16
2023-01-09T10:16:01.567Z,99431.53
2023-01-09T10:21:12.287Z,99436.25
2023-01-09T10:26:16.429Z,99413.66
2023-01-09T10:31:29.020Z,99424.22
2023-01-09T10:36:33.257Z,99421.44
2023-01-09T10:41:38.482Z,99423.84
2023-01-09T10:46:48.716Z,99411.03
2023-01-09T10:51:51.674Z,99416.56
2023-01-09T10:56:59.147Z,99427.66
2023-01-09T11:02:01.202Z,99427.88
2023-01-09T11:07:07.849Z,99436.50
2023-01-09T11:12:23.973Z,99438.91
2023-01-09T11:17:26.881Z,99442.59
2023-01-09T11:22:28.559Z,99423.13
2023-01-09T11:27:29.953Z,99437.09
2023-01-09T11:32:32.022Z,99443.94
2023-01-09T11:37:33.923Z,99457.19
2023-01-09T11:42:53.590Z,99454.38
2023-01-09T11:47:54.911Z,99451.72
2023-01-09T11:53:05.527Z,99439.41
2023-01-09T11:58:12.250Z,99439.75
2023-01-09T12:03:13.557Z,99431.81
2023-01-09T12:08:21.841Z,99444.16
2023-01-09T12:13:43.667Z,99444.41
2023-01-09T12:18:59.449Z,99452.91
2023-01-09T12:24:04.122Z,99450.91
2023-01-09T12:29:11.615Z,99460.09
2023-01-09T12:34:36.239Z,99456.34
2023-01-09T12:39:44.164Z,99469.13
2023-01-09T12:44:51.327Z,99484.16
2023-01-09T12:49:59.636Z,99477.84
2023-01-09T12:55:19.252Z,99477.97
2023-01-09T13:00:20.848Z,99483.94
2023-01-09T13:05:25.237Z,99493.78
2023-01-09T13:10:30.662Z,99512.72
2023-01-09T13:15:35.761Z,99508.19
2023-01-09T13:20:50.884Z,99529.88
2023-01-09T13:25:54.365Z,99524.28
2023-01-09T13:31:08.715Z,99533.53
2023-01-09T13:36:19.647Z,99527.56
2023-01-09T13:41:59.539Z,99534.44
2023-01-09T13:47:02.309Z,99530.66
2023-01-09T13:52:05.042Z,99536.28
2023-01-09T13:57:18.454Z,99545.16
2023-01-09T14:02:35.149Z,99550.16
2023-01-09T14:07:37.452Z,99553.16
2023-01-09T14:12:40.676Z,99561.22
2023-01-09T14:17:42.321Z,99572.63
2023-01-09T14:22:55.843Z,99587.03
2023-01-09T14:27:57.948Z,99586.19
2023-01-09T14:33:05.130Z,99602.16
2023-01-09T14:38:13.928Z,99617.59
2023-01-09T14:43:21.308Z,99638.88
2023-01-09T14:48:24.395Z,99646.19
2023-01-09T14:53:28.628Z,99665.84
2023-01-09T14:58:31.122Z,99684.06
2023-01-09T15:03:34.674Z,99687.28
2023-01-09T15:08:36.388Z,99688.09
2023-01-09T15:13:42.133Z,99699.91
2023-01-09T15:18:43.555Z,99725.72
2023-01-09T15:23:44.851Z,99726.09
2023-01-09T15:28:46.164Z,99746.34
2023-01-09T15:33:48.250Z,99741.91
2023-01-09T15:38:50.366Z,99762.72
2023-01-09T15:43:51.737Z,99778.53
2023-01-09T15:48:53.903Z,99792.09
2023-01-09T15:53:57.606Z,99797.13
2023-01-09T15:58:59.483Z,99800.66
2023-01-09T16:04:04.666Z,99813.88
2023-01-09T16:09:14.854Z,99814.09
2023-01-09T16:14:16.143Z,99832.81
2023-01-09T16:19:46.431Z,99853.59
2023-01-09T16:24:53.584Z,99873.13
2023-01-09T16:29:57.995Z,99884.28
2023-01-09T16:35:06.093Z,99894.19
2023-01-09T16:40:24.022Z,99913.69
2023-01-09T16:45:26.473Z,99932.03
2023-01-09T16:50:28.075Z,99928.84
2023-01-09T16:55:29.416Z,99930.97
2023-01-09T17:00:32.018Z,99931.75
2023-01-09T17:05:33.345Z,99935.22
2023-01-09T17:10:34.821Z,99942.16
2023-01-09T17:15:36.140Z,99951.44
2023-01-09T17:20:37.479Z,99955.41
2023-01-09T17:25:58.045Z,99959.72
2023-01-09T17:31:05.738Z,99960.22
2023-01-09T17:36:26.177Z,99961.63
2023-01-09T17:41:28.853Z,99970.59
2023-01-09T17:46:34.987Z,99985.53
2023-01-09T17:51:36.340Z,100000.13
2023-01-09T17:56:38.569Z,100002.97
2023-01-09T18:01:40.177Z,100017.13
2023-01-09T18:06:41.744Z,100024.91
2023-01-09T18:11:44.042Z,100044.41
2023-01-09T18:16:45.601Z,100033.03
2023-01-09T18:21:46.972Z,100040.03
2023-01-09T18:26:48.268Z,100049.34
2023-01-09T18:31:51.223Z,100056.25
2023-01-09T18:36:52.608Z,100065.47
2023-01-09T18:41:54.039Z,100067.63
2023-01-09T18:46:55.427Z,100073.34
2023-01-09T18:51:56.817Z,100084.00
2023-01-09T18:56:58.117Z,100101.72
2023-01-09T19:02:01.954Z,100113.84
2023-01-09T19:07:03.450Z,100128.19
2023-01-09T19:12:04.854Z,100129.25
2023-01-09T19:17:06.493Z,100134.44
2023-01-09T19:22:07.803Z,100149.56
2023-01-09T19:27:09.148Z,100160.75
2023-01-09T19:32:10.643Z,100176.31
2023-01-09T19:37:12.037Z,100180.31
2023-01-09T19:42:13.688Z,100180.13
2023-01-09T19:47:15.136Z,100180.13
2023-01-09T19:52:16.463Z,100197.59
2023-01-09T19:57:17.791Z,100213.44
2023-01-09T20:07:25.498Z,100217.72
2023-01-09T20:12:26.847Z,100216.28
2023-01-09T20:17:28.497Z,100237.13
2023-01-09T20:22:29.802Z,100243.84
2023-01-09T20:27:31.123Z,100257.16
2023-01-09T20:32:32.579Z,100261.53
2023-01-09T20:37:33.906Z,100277.19
2023-01-09T20:42:35.273Z,100289.25
2023-01-09T20:47:36.584Z,100310.34
2023-01-09T20:52:37.912Z,100311.81
2023-01-09T20:57:39.491Z,100332.16
2023-01-09T21:02:40.992Z,100339.09
2023-01-09T21:07:42.298Z,100351.47
2023-01-09T21:12:43.631Z,100366.09
2023-01-09T21:17:45.002Z,100389.00
2023-01-09T21:22:46.461Z,100393.44
2023-01-09T21:27:50.234Z,100409.81
2023-01-09T21:32:51.636Z,100413.38
2023-01-09T21:37:52.964Z,100418.88
2023-01-09T21:43:13.064Z,100426.47
2023-01-09T21:48:14.391Z,100438.28
2023-01-09T21:53:15.737Z,100458.16
2023-01-09T21:58:17.044Z,100464.47
2023-01-09T22:03:18.953Z,100493.00
2023-01-09T22:08:20.254Z,100503.34
2023-01-09T22:13:21.729Z,100522.16
2023-01-09T22:18:23.051Z,100515.69
2023-01-09T22:23:24.572Z,100503.34
2023-01-09T22:28:25.872Z,100516.31
2023-01-09T22:33:27.187Z,100523.63
2023-01-09T22:38:28.512Z,100535.44
2023-01-09T22:43:30.606Z,100550.63
2023-01-09T22:48:32.857Z,100562.94
2023-01-09T22:53:34.351Z,100577.34
2023-01-09T22:58:35.813Z,100588.34
2023-01-09T23:03:37.113Z,100592.75
2023-01-09T23:08:38.924Z,100605.03
2023-01-09T23:13:40.537Z,100602.56
2023-01-09T23:18:41.853Z,100615.81
2023-01-09T23:23:43.147Z,100630.06
2023-01-09T23:28:44.438Z,100630.56
2023-01-09T23:33:45.743Z,100642.69
2023-01-09T23:38:47.081Z,100661.47
2023-01-09T23:43:48.413Z,100669.09
2023-01-09T23:48:49.797Z,100676.09
2023-01-09T23:53:51.200Z,100681.59
2023-01-09T23:58:52.560Z,100683.38
